createdAt,value
2019-03-19T00:02:00.007Z,2.57
2019-03-19T00:07:03.790Z,2.30
2019-03-19T00:12:07.853Z,2.10
2019-03-19T00:17:11.974Z,2.80
2019-03-19T00:22:15.981Z,2.13
2019-03-19T00:27:19.678Z,2.50
2019-03-19T00:32:23.929Z,2.00
2019-03-19T00:37:27.757Z,1.90
2019-03-19T00:42:31.428Z,2.17
2019-03-19T00:47:35.323Z,2.20
2019-03-19T00:52:39.539Z,1.83
2019-03-19T00:57:43.336Z,2.20
2019-03-19T01:02:47.139Z,2.30
2019-03-19T01:07:51.318Z,2.57
2019-03-19T01:12:55.352Z,2.53
2019-03-19T01:17:59.073Z,2.20
2019-03-19T01:23:02.731Z,2.70
2019-03-19T01:28:06.623Z,1.77
2019-03-19T01:33:10.273Z,2.30
2019-03-19T01:38:14.257Z,2.07
2019-03-19T01:43:17.929Z,2.10
2019-03-19T01:48:21.569Z,2.13
2019-03-19T01:53:25.213Z,2.17
2019-03-19T01:58:29.168Z,2.10
2019-03-19T02:03:33.097Z,1.80
2019-03-19T02:08:36.753Z,2.47
2019-03-19T02:13:40.808Z,2.37
2019-03-19T02:18:44.460Z,1.97
2019-03-19T02:23:48.433Z,2.20
2019-03-19T02:28:52.078Z,2.20
2019-03-19T02:33:56.035Z,2.40
2019-03-19T02:38:59.683Z,2.03
2019-03-19T02:44:03.340Z,2.03
2019-03-19T02:49:06.987Z,2.83
2019-03-19T02:54:10.934Z,1.70
2019-03-19T02:59:14.817Z,2.70
2019-03-19T03:04:18.498Z,2.43
2019-03-19T03:09:22.149Z,2.60
2019-03-19T03:14:25.805Z,2.30
2019-03-19T03:19:29.463Z,2.63
2019-03-19T03:24:33.118Z,2.33
2019-03-19T03:29:37.005Z,2.30
2019-03-19T03:34:40.655Z,2.20
2019-03-19T03:39:44.538Z,2.10
2019-03-19T03:44:48.212Z,2.23
2019-03-19T03:49:51.873Z,3.33
2019-03-19T03:54:56.144Z,2.63
2019-03-19T03:59:59.783Z,2.10
2019-03-19T04:05:03.527Z,2.20
2019-03-19T04:10:08.297Z,2.40
2019-03-19T04:15:12.003Z,2.10
2019-03-19T04:20:16.429Z,2.07
2019-03-19T04:25:20.078Z,2.53
2019-03-19T04:30:24.147Z,2.60
2019-03-19T04:35:27.793Z,1.90
2019-03-19T04:40:31.458Z,3.10
2019-03-19T04:45:35.117Z,5.80
2019-03-19T04:50:38.777Z,2.13
2019-03-19T04:55:42.435Z,2.50
2019-03-19T05:00:46.098Z,2.43
2019-03-19T05:05:50.143Z,2.87
2019-03-19T05:10:53.834Z,2.23
2019-03-19T05:15:57.489Z,2.90
2019-03-19T05:21:01.501Z,5.10
2019-03-19T05:26:05.277Z,3.27
2019-03-19T05:31:08.938Z,3.23
2019-03-19T05:36:12.607Z,3.07
2019-03-19T05:41:16.763Z,2.43
2019-03-19T05:46:20.498Z,2.80
2019-03-19T05:51:24.233Z,2.50
2019-03-19T05:56:27.905Z,2.17
2019-03-19T06:01:31.534Z,2.67
2019-03-19T06:06:35.505Z,2.30
2019-03-19T06:11:41.910Z,2.30
2019-03-19T06:16:45.577Z,2.77
2019-03-19T06:21:49.535Z,2.13
2019-03-19T06:26:53.200Z,3.47
2019-03-19T06:31:57.118Z,2.50
2019-03-19T06:37:00.817Z,2.50
2019-03-19T06:42:04.553Z,2.60
2019-03-19T06:47:08.206Z,2.30
2019-03-19T06:52:11.962Z,2.13
2019-03-19T06:57:15.937Z,3.33
2019-03-19T07:02:19.624Z,2.60
2019-03-19T07:07:23.274Z,3.10
2019-03-19T07:12:26.926Z,3.33
2019-03-19T07:17:30.622Z,2.43
2019-03-19T07:22:35.459Z,2.73
2019-03-19T07:27:39.187Z,3.70
2019-03-19T07:32:43.211Z,2.97
2019-03-19T07:37:46.903Z,2.77
2019-03-19T07:42:50.730Z,2.90
2019-03-19T07:47:54.603Z,3.00
2019-03-19T07:52:58.345Z,3.03
2019-03-19T07:58:02.046Z,3.20
2019-03-19T08:03:15.542Z,2.93
2019-03-19T08:08:11.245Z,2.90
2019-03-19T08:13:15.475Z,2.63
2019-03-19T08:18:19.446Z,2.53
2019-03-19T08:23:23.142Z,2.30
2019-03-19T08:28:27.246Z,3.03
2019-03-19T08:33:30.928Z,2.30
2019-03-19T08:38:34.593Z,2.90
2019-03-19T08:43:38.337Z,2.70
2019-03-19T08:48:42.026Z,2.70
2019-03-19T08:53:46.270Z,3.20
2019-03-19T08:58:50.000Z,2.23
2019-03-19T09:03:53.947Z,3.13
2019-03-19T09:08:57.615Z,3.27
2019-03-19T09:14:01.265Z,2.80
2019-03-19T09:19:05.282Z,2.60
2019-03-19T09:24:09.214Z,2.53
2019-03-19T09:29:17.060Z,2.73
2019-03-19T09:34:18.405Z,4.00
2019-03-19T09:39:22.197Z,2.70
2019-03-19T09:44:26.378Z,2.70
2019-03-19T09:49:30.072Z,2.40
2019-03-19T09:54:33.982Z,2.97
2019-03-19T09:59:37.693Z,3.50
2019-03-19T10:04:41.405Z,2.93
2019-03-19T10:09:45.159Z,2.87
2019-03-19T10:14:48.878Z,2.50
2019-03-19T10:19:52.607Z,2.87
2019-03-19T10:24:56.574Z,2.80
2019-03-19T10:30:00.333Z,2.53
2019-03-19T10:35:04.306Z,2.77
2019-03-19T10:40:08.295Z,2.70
2019-03-19T10:45:12.685Z,2.60
2019-03-19T10:50:18.339Z,2.77
2019-03-19T10:55:22.117Z,2.60
2019-03-19T11:00:25.983Z,2.00
2019-03-19T11:05:29.662Z,2.10
2019-03-19T11:10:33.425Z,2.10
2019-03-19T11:15:37.162Z,1.50
2019-03-19T11:20:41.192Z,2.10
2019-03-19T11:25:54.135Z,2.53
2019-03-19T11:30:50.667Z,1.77
2019-03-19T11:35:54.449Z,1.90
2019-03-19T11:40:58.217Z,1.97
2019-03-19T11:46:01.921Z,2.63
2019-03-19T11:51:05.911Z,2.77
2019-03-19T11:56:09.620Z,3.37
2019-03-19T12:01:13.424Z,2.10
2019-03-19T12:06:17.581Z,2.90
2019-03-19T12:11:21.307Z,2.30
2019-03-19T12:16:24.974Z,1.80
2019-03-19T12:21:28.666Z,1.43
2019-03-19T12:26:32.568Z,2.17
2019-03-19T12:31:36.249Z,1.80
2019-03-19T12:36:40.299Z,1.97
2019-03-19T12:41:44.261Z,1.77
2019-03-19T12:46:47.951Z,1.97
2019-03-19T12:51:51.694Z,1.50
2019-03-19T12:56:55.469Z,1.40
2019-03-19T13:01:59.182Z,1.50
2019-03-19T13:07:03.017Z,2.20
2019-03-19T13:12:07.018Z,2.10
2019-03-19T13:17:10.694Z,2.20
2019-03-19T13:22:14.614Z,2.00
2019-03-19T13:27:18.322Z,1.90
2019-03-19T13:32:22.030Z,2.00
2019-03-19T13:37:25.785Z,1.97
2019-03-19T13:42:29.837Z,1.60
2019-03-19T13:47:33.813Z,1.73
2019-03-19T13:52:37.804Z,1.50
2019-03-19T13:57:41.749Z,1.20
2019-03-19T14:02:46.309Z,1.40
2019-03-19T14:07:50.045Z,1.70
2019-03-19T14:12:57.300Z,1.70
2019-03-19T14:18:01.334Z,1.53
2019-03-19T14:23:05.070Z,1.80
2019-03-19T14:28:08.781Z,1.57
2019-03-19T14:33:12.446Z,1.60
2019-03-19T14:38:16.449Z,1.70
2019-03-19T14:43:20.422Z,2.00
2019-03-19T14:48:24.837Z,2.43
2019-03-19T14:53:28.498Z,2.87
2019-03-19T14:58:32.151Z,2.50
2019-03-19T15:03:36.137Z,2.90
2019-03-19T15:08:40.213Z,2.80
2019-03-19T15:13:43.868Z,2.03
2019-03-19T15:18:47.512Z,2.00
2019-03-19T15:23:52.012Z,3.13
2019-03-19T15:28:55.662Z,1.77
2019-03-19T15:33:59.329Z,1.97
2019-03-19T15:39:03.000Z,1.70
2019-03-19T15:44:08.037Z,2.03
2019-03-19T15:49:11.709Z,1.93
2019-03-19T15:54:15.663Z,2.17
2019-03-19T15:59:19.358Z,2.10
2019-03-19T16:04:23.499Z,1.80
2019-03-19T16:09:27.165Z,2.40
2019-03-19T16:14:31.244Z,2.10
2019-03-19T16:19:34.907Z,2.10
2019-03-19T16:24:39.295Z,1.90
2019-03-19T16:29:42.967Z,2.27
2019-03-19T16:34:46.908Z,2.07
2019-03-19T16:39:50.937Z,2.30
2019-03-19T16:44:54.910Z,2.20
2019-03-19T16:49:58.574Z,2.37
2019-03-19T16:55:02.237Z,1.73
2019-03-19T17:00:07.223Z,2.00
2019-03-19T17:05:11.065Z,1.40
2019-03-19T17:10:15.511Z,1.77
2019-03-19T17:15:19.627Z,1.87
2019-03-19T17:20:23.533Z,1.67
2019-03-19T17:25:27.284Z,1.80
2019-03-19T17:30:31.138Z,1.90
2019-03-19T17:35:34.929Z,2.10
2019-03-19T17:40:41.563Z,2.10
2019-03-19T17:45:44.982Z,1.97
2019-03-19T17:50:49.347Z,2.43
2019-03-19T17:55:52.995Z,1.93
2019-03-19T18:00:56.796Z,1.73
2019-03-19T18:06:00.440Z,2.57
2019-03-19T18:11:04.291Z,2.53
2019-03-19T18:16:08.002Z,2.60
2019-03-19T18:21:12.051Z,2.60
2019-03-19T18:26:15.728Z,2.43
2019-03-19T18:31:19.800Z,2.97
2019-03-19T18:36:24.561Z,2.70
2019-03-19T18:41:28.214Z,4.00
2019-03-19T18:46:32.217Z,3.00
2019-03-19T18:51:35.889Z,3.20
2019-03-19T18:56:48.278Z,2.83
2019-03-19T19:01:52.257Z,3.30
2019-03-19T19:07:01.365Z,2.97
2019-03-19T19:12:06.721Z,3.00
2019-03-19T19:17:10.471Z,3.63
2019-03-19T19:22:14.248Z,3.40
2019-03-19T19:27:18.007Z,3.50
2019-03-19T19:32:21.782Z,3.90
2019-03-19T19:37:25.906Z,3.43
2019-03-19T19:42:35.714Z,4.03
2019-03-19T19:47:39.771Z,3.30
2019-03-19T19:52:43.730Z,3.80
2019-03-19T19:57:47.612Z,3.50
2019-03-19T20:02:51.551Z,3.80
2019-03-19T20:07:55.250Z,3.63
2019-03-19T20:12:58.935Z,3.67
2019-03-19T20:18:02.881Z,3.97
2019-03-19T20:23:06.622Z,3.73
2019-03-19T20:28:10.285Z,3.67
2019-03-19T20:33:24.475Z,4.43
2019-03-19T20:38:19.469Z,4.63
2019-03-19T20:43:23.655Z,4.63
2019-03-19T20:48:27.424Z,4.80
2019-03-19T20:53:31.438Z,4.60
2019-03-19T20:58:43.100Z,4.23
2019-03-19T21:03:40.658Z,4.63
2019-03-19T21:08:44.365Z,3.70
2019-03-19T21:13:48.131Z,3.47
2019-03-19T21:18:51.866Z,3.73
2019-03-19T21:23:56.222Z,3.30
2019-03-19T21:29:00.668Z,3.80
2019-03-19T21:34:04.458Z,3.33
2019-03-19T21:39:08.681Z,3.30
2019-03-19T21:44:12.406Z,3.43
2019-03-19T21:49:16.127Z,3.33
2019-03-19T21:54:19.845Z,4.07
2019-03-19T21:59:23.561Z,2.63
2019-03-19T22:04:27.541Z,3.30
2019-03-19T22:09:31.246Z,3.47
2019-03-19T22:14:35.018Z,3.33
2019-03-19T22:19:40.155Z,3.43
2019-03-19T22:24:44.329Z,4.33
2019-03-19T22:29:48.305Z,3.20
2019-03-19T22:34:52.111Z,2.77
2019-03-19T22:39:55.825Z,2.70
2019-03-19T22:44:59.781Z,3.03
2019-03-19T22:50:04.109Z,3.33
2019-03-19T22:55:08.142Z,3.27
2019-03-19T23:00:31.628Z,3.73
2019-03-19T23:05:36.415Z,3.20
2019-03-19T23:10:40.131Z,3.20
2019-03-19T23:15:44.039Z,3.37
2019-03-19T23:20:48.186Z,3.73
2019-03-19T23:25:52.172Z,3.60
2019-03-19T23:30:55.940Z,4.03
2019-03-19T23:36:00.101Z,3.90
2019-03-19T23:41:03.876Z,3.97
2019-03-19T23:46:07.566Z,3.33
2019-03-19T23:51:11.646Z,3.07
2019-03-19T23:56:15.417Z,3.53
